Tyrone, Colorado
Current Conditions -  °F | °C
As of 11:54 PM on Friday 31 Oct 2014 (Local Time) from KTAD Reporting Station
Clear Clear  
Wind Chill: 11°   Ceiling: Unl
Heat Index: 11°   Visibility: 10mi
Dew Point: -1°   Wind: 21mph
Humidity: 43%   Direction: 250°WSW
Pressure: 30.11"   Gusts: 31mph
Location:  37.5307°N, 104.063°W
Report Text: KTAD 010554Z AUTO 25018G27KT 10SM CLR 11/M01 A3011 RMK AO2 PK WND 25028/0541 SLP148 T01111011 10139 20100 58011
Loading
Personal Weather Stations






























Interactive Weather Map
Tropical Storm Tracking
New forecast layout! Learn more

10-Day Weather Forecast

Advertisements
Track Severe Weather on mobile